sensor_id;sensor_type;location;lat;lon;timestamp;P1;durP1;ratioP1;P2;durP2;ratioP2
74620;SDS011;64861;47.546;19.254;2023-01-16T00:02:12;13.63;;;8.48;;
74620;SDS011;64861;47.546;19.254;2023-01-16T00:04:38;14.98;;;8.52;;
74620;SDS011;64861;47.546;19.254;2023-01-16T00:07:03;13.52;;;8.63;;
74620;SDS011;64861;47.546;19.254;2023-01-16T00:09:29;12.32;;;8.15;;
74620;SDS011;64861;47.546;19.254;2023-01-16T00:11:54;15.15;;;8.85;;
74620;SDS011;64861;47.546;19.254;2023-01-16T00:14:20;15.57;;;8.90;;
74620;SDS011;64861;47.546;19.254;2023-01-16T00:16:45;16.30;;;9.05;;
74620;SDS011;64861;47.546;19.254;2023-01-16T00:19:10;13.05;;;8.35;;
74620;SDS011;64861;47.546;19.254;2023-01-16T00:21:36;14.68;;;8.73;;
74620;SDS011;64861;47.546;19.254;2023-01-16T00:24:01;14.80;;;8.05;;
74620;SDS011;64861;47.546;19.254;2023-01-16T00:26:27;12.98;;;8.30;;
74620;SDS011;64861;47.546;19.254;2023-01-16T00:28:54;13.57;;;8.57;;
74620;SDS011;64861;47.546;19.254;2023-01-16T00:31:20;14.43;;;8.23;;
74620;SDS011;64861;47.546;19.254;2023-01-16T00:33:48;11.70;;;7.75;;
74620;SDS011;64861;47.546;19.254;2023-01-16T00:36:13;12.32;;;7.63;;
74620;SDS011;64861;47.546;19.254;2023-01-16T00:38:39;12.82;;;8.50;;
74620;SDS011;64861;47.546;19.254;2023-01-16T00:41:04;16.17;;;8.10;;
74620;SDS011;64861;47.546;19.254;2023-01-16T00:43:31;12.90;;;8.18;;
74620;SDS011;64861;47.546;19.254;2023-01-16T00:45:57;14.05;;;8.43;;
74620;SDS011;64861;47.546;19.254;2023-01-16T00:48:22;14.57;;;8.07;;
74620;SDS011;64861;47.546;19.254;2023-01-16T00:50:48;13.13;;;8.07;;
74620;SDS011;64861;47.546;19.254;2023-01-16T00:53:15;13.60;;;7.93;;
74620;SDS011;64861;47.546;19.254;2023-01-16T00:55:41;13.75;;;8.48;;
74620;SDS011;64861;47.546;19.254;2023-01-16T00:58:07;12.55;;;8.38;;
74620;SDS011;64861;47.546;19.254;2023-01-16T01:00:33;12.40;;;8.18;;
74620;SDS011;64861;47.546;19.254;2023-01-16T01:02:59;13.50;;;7.90;;
74620;SDS011;64861;47.546;19.254;2023-01-16T01:05:25;13.30;;;8.35;;
74620;SDS011;64861;47.546;19.254;2023-01-16T01:07:51;11.10;;;7.28;;
74620;SDS011;64861;47.546;19.254;2023-01-16T01:10:16;13.70;;;7.97;;
74620;SDS011;64861;47.546;19.254;2023-01-16T01:12:42;12.70;;;7.57;;
74620;SDS011;64861;47.546;19.254;2023-01-16T01:15:07;12.25;;;7.65;;
74620;SDS011;64861;47.546;19.254;2023-01-16T01:17:33;13.45;;;8.13;;
74620;SDS011;64861;47.546;19.254;2023-01-16T01:19:59;11.32;;;7.57;;
74620;SDS011;64861;47.546;19.254;2023-01-16T01:22:24;12.32;;;8.10;;
74620;SDS011;64861;47.546;19.254;2023-01-16T01:24:51;13.52;;;8.38;;
74620;SDS011;64861;47.546;19.254;2023-01-16T01:27:17;13.40;;;8.07;;
74620;SDS011;64861;47.546;19.254;2023-01-16T01:29:42;12.10;;;7.57;;
74620;SDS011;64861;47.546;19.254;2023-01-16T01:32:08;12.63;;;7.50;;
74620;SDS011;64861;47.546;19.254;2023-01-16T01:34:34;11.60;;;7.97;;
74620;SDS011;64861;47.546;19.254;2023-01-16T01:37:06;10.68;;;7.18;;
74620;SDS011;64861;47.546;19.254;2023-01-16T01:39:32;12.98;;;7.93;;
74620;SDS011;64861;47.546;19.254;2023-01-16T01:41:59;11.93;;;8.38;;
74620;SDS011;64861;47.546;19.254;2023-01-16T01:44:53;13.55;;;7.95;;
74620;SDS011;64861;47.546;19.254;2023-01-16T01:47:31;11.35;;;7.78;;
74620;SDS011;64861;47.546;19.254;2023-01-16T01:49:59;10.50;;;7.32;;
74620;SDS011;64861;47.546;19.254;2023-01-16T01:52:28;11.25;;;7.55;;
74620;SDS011;64861;47.546;19.254;2023-01-16T01:54:58;12.05;;;7.55;;
74620;SDS011;64861;47.546;19.254;2023-01-16T01:57:29;12.05;;;7.93;;
74620;SDS011;64861;47.546;19.254;2023-01-16T02:00:02;12.70;;;8.27;;
74620;SDS011;64861;47.546;19.254;2023-01-16T02:02:42;12.27;;;7.72;;
74620;SDS011;64861;47.546;19.254;2023-01-16T02:05:11;12.05;;;7.55;;
74620;SDS011;64861;47.546;19.254;2023-01-16T02:07:40;13.40;;;7.53;;
74620;SDS011;64861;47.546;19.254;2023-01-16T02:10:11;12.32;;;7.75;;
74620;SDS011;64861;47.546;19.254;2023-01-16T02:12:45;12.55;;;7.75;;
74620;SDS011;64861;47.546;19.254;2023-01-16T02:15:10;12.88;;;7.43;;
74620;SDS011;64861;47.546;19.254;2023-01-16T02:17:42;10.75;;;7.50;;
74620;SDS011;64861;47.546;19.254;2023-01-16T02:20:27;10.70;;;7.47;;
74620;SDS011;64861;47.546;19.254;2023-01-16T02:28:51;13.38;;;8.13;;
74620;SDS011;64861;47.546;19.254;2023-01-16T02:31:54;11.25;;;7.32;;
74620;SDS011;64861;47.546;19.254;2023-01-16T02:36:58;11.98;;;7.45;;
74620;SDS011;64861;47.546;19.254;2023-01-16T02:42:20;10.65;;;7.40;;
74620;SDS011;64861;47.546;19.254;2023-01-16T02:56:27;10.63;;;6.80;;
74620;SDS011;64861;47.546;19.254;2023-01-16T02:58:58;10.13;;;7.10;;
74620;SDS011;64861;47.546;19.254;2023-01-16T03:01:24;11.18;;;7.15;;
74620;SDS011;64861;47.546;19.254;2023-01-16T03:03:50;10.02;;;7.03;;
74620;SDS011;64861;47.546;19.254;2023-01-16T03:06:31;10.35;;;6.80;;
74620;SDS011;64861;47.546;19.254;2023-01-16T03:15:04;10.80;;;7.20;;
74620;SDS011;64861;47.546;19.254;2023-01-16T03:23:14;9.77;;;6.70;;
74620;SDS011;64861;47.546;19.254;2023-01-16T03:25:45;9.60;;;6.43;;
74620;SDS011;64861;47.546;19.254;2023-01-16T03:31:04;8.75;;;5.85;;
74620;SDS011;64861;47.546;19.254;2023-01-16T03:36:30;12.75;;;7.45;;
74620;SDS011;64861;47.546;19.254;2023-01-16T03:39:05;10.00;;;7.18;;
74620;SDS011;64861;47.546;19.254;2023-01-16T03:41:33;11.32;;;7.18;;
74620;SDS011;64861;47.546;19.254;2023-01-16T03:44:08;12.18;;;6.78;;
74620;SDS011;64861;47.546;19.254;2023-01-16T03:46:40;8.82;;;6.43;;
74620;SDS011;64861;47.546;19.254;2023-01-16T03:49:11;9.10;;;6.35;;
74620;SDS011;64861;47.546;19.254;2023-01-16T03:51:48;10.55;;;6.47;;
74620;SDS011;64861;47.546;19.254;2023-01-16T03:57:26;9.95;;;6.72;;
74620;SDS011;64861;47.546;19.254;2023-01-16T03:59:57;9.32;;;6.25;;
74620;SDS011;64861;47.546;19.254;2023-01-16T04:02:32;9.77;;;6.45;;
74620;SDS011;64861;47.546;19.254;2023-01-16T04:05:27;10.45;;;6.25;;
74620;SDS011;64861;47.546;19.254;2023-01-16T04:08:00;9.30;;;6.35;;
74620;SDS011;64861;47.546;19.254;2023-01-16T04:10:31;9.55;;;6.55;;
74620;SDS011;64861;47.546;19.254;2023-01-16T04:13:06;9.93;;;6.70;;
74620;SDS011;64861;47.546;19.254;2023-01-16T04:15:35;10.13;;;6.63;;
74620;SDS011;64861;47.546;19.254;2023-01-16T04:18:06;8.98;;;6.30;;
74620;SDS011;64861;47.546;19.254;2023-01-16T04:20:31;9.35;;;6.25;;
74620;SDS011;64861;47.546;19.254;2023-01-16T04:22:58;9.45;;;6.55;;
74620;SDS011;64861;47.546;19.254;2023-01-16T04:25:23;10.13;;;6.53;;
74620;SDS011;64861;47.546;19.254;2023-01-16T04:27:49;10.15;;;6.65;;
74620;SDS011;64861;47.546;19.254;2023-01-16T04:30:14;9.27;;;6.10;;
74620;SDS011;64861;47.546;19.254;2023-01-16T04:32:40;8.43;;;5.72;;
74620;SDS011;64861;47.546;19.254;2023-01-16T04:35:07;10.60;;;6.47;;
74620;SDS011;64861;47.546;19.254;2023-01-16T04:37:32;9.75;;;6.50;;
74620;SDS011;64861;47.546;19.254;2023-01-16T04:39:58;10.00;;;6.22;;
74620;SDS011;64861;47.546;19.254;2023-01-16T04:42:24;9.90;;;6.40;;
74620;SDS011;64861;47.546;19.254;2023-01-16T04:44:50;9.00;;;6.68;;
74620;SDS011;64861;47.546;19.254;2023-01-16T04:47:15;9.82;;;6.65;;
74620;SDS011;64861;47.546;19.254;2023-01-16T04:49:41;9.18;;;6.07;;
74620;SDS011;64861;47.546;19.254;2023-01-16T04:52:06;8.68;;;5.95;;
74620;SDS011;64861;47.546;19.254;2023-01-16T04:54:32;9.15;;;6.20;;
74620;SDS011;64861;47.546;19.254;2023-01-16T04:56:58;8.93;;;5.95;;
74620;SDS011;64861;47.546;19.254;2023-01-16T04:59:23;9.70;;;5.85;;
74620;SDS011;64861;47.546;19.254;2023-01-16T05:01:49;9.50;;;6.32;;
74620;SDS011;64861;47.546;19.254;2023-01-16T05:04:15;9.88;;;6.43;;
74620;SDS011;64861;47.546;19.254;2023-01-16T05:06:41;9.35;;;6.50;;
74620;SDS011;64861;47.546;19.254;2023-01-16T05:09:06;10.32;;;6.28;;
74620;SDS011;64861;47.546;19.254;2023-01-16T05:11:32;8.75;;;5.95;;
74620;SDS011;64861;47.546;19.254;2023-01-16T05:13:59;10.10;;;6.25;;
74620;SDS011;64861;47.546;19.254;2023-01-16T05:16:26;8.73;;;5.90;;
74620;SDS011;64861;47.546;19.254;2023-01-16T05:18:52;9.18;;;6.03;;
74620;SDS011;64861;47.546;19.254;2023-01-16T05:21:17;9.45;;;6.55;;
74620;SDS011;64861;47.546;19.254;2023-01-16T05:23:43;8.32;;;5.72;;
74620;SDS011;64861;47.546;19.254;2023-01-16T05:26:08;9.27;;;6.28;;
74620;SDS011;64861;47.546;19.254;2023-01-16T05:28:34;9.38;;;6.40;;
74620;SDS011;64861;47.546;19.254;2023-01-16T05:31:00;8.88;;;6.47;;
74620;SDS011;64861;47.546;19.254;2023-01-16T05:33:26;8.32;;;5.72;;
74620;SDS011;64861;47.546;19.254;2023-01-16T05:35:52;9.48;;;6.05;;
74620;SDS011;64861;47.546;19.254;2023-01-16T05:38:19;9.23;;;6.28;;
74620;SDS011;64861;47.546;19.254;2023-01-16T05:40:45;8.90;;;6.05;;
74620;SDS011;64861;47.546;19.254;2023-01-16T05:43:11;9.27;;;5.97;;
74620;SDS011;64861;47.546;19.254;2023-01-16T05:45:37;8.23;;;5.82;;
74620;SDS011;64861;47.546;19.254;2023-01-16T05:48:03;10.57;;;6.40;;
74620;SDS011;64861;47.546;19.254;2023-01-16T05:50:29;8.13;;;5.55;;
74620;SDS011;64861;47.546;19.254;2023-01-16T05:52:55;12.30;;;6.20;;
74620;SDS011;64861;47.546;19.254;2023-01-16T05:55:20;9.48;;;6.10;;
74620;SDS011;64861;47.546;19.254;2023-01-16T05:57:46;9.00;;;6.07;;
74620;SDS011;64861;47.546;19.254;2023-01-16T06:00:11;9.52;;;5.88;;
74620;SDS011;64861;47.546;19.254;2023-01-16T06:02:37;8.43;;;5.95;;
74620;SDS011;64861;47.546;19.254;2023-01-16T06:05:03;8.80;;;5.75;;
74620;SDS011;64861;47.546;19.254;2023-01-16T06:07:29;8.68;;;6.00;;
74620;SDS011;64861;47.546;19.254;2023-01-16T06:09:54;8.68;;;5.70;;
74620;SDS011;64861;47.546;19.254;2023-01-16T06:12:20;9.55;;;5.70;;
74620;SDS011;64861;47.546;19.254;2023-01-16T06:14:46;9.10;;;5.72;;
74620;SDS011;64861;47.546;19.254;2023-01-16T06:17:12;7.70;;;5.50;;
74620;SDS011;64861;47.546;19.254;2023-01-16T06:19:41;11.05;;;5.85;;
74620;SDS011;64861;47.546;19.254;2023-01-16T06:22:07;7.38;;;5.15;;
74620;SDS011;64861;47.546;19.254;2023-01-16T06:24:32;8.90;;;5.43;;
74620;SDS011;64861;47.546;19.254;2023-01-16T06:26:58;10.23;;;5.43;;
74620;SDS011;64861;47.546;19.254;2023-01-16T06:29:23;8.07;;;5.38;;
74620;SDS011;64861;47.546;19.254;2023-01-16T06:31:49;18.52;;;5.75;;
74620;SDS011;64861;47.546;19.254;2023-01-16T06:34:14;8.13;;;5.57;;
74620;SDS011;64861;47.546;19.254;2023-01-16T06:36:40;10.63;;;5.13;;
74620;SDS011;64861;47.546;19.254;2023-01-16T06:39:06;7.63;;;4.95;;
74620;SDS011;64861;47.546;19.254;2023-01-16T06:41:32;9.32;;;4.88;;
74620;SDS011;64861;47.546;19.254;2023-01-16T06:43:58;9.05;;;5.13;;
74620;SDS011;64861;47.546;19.254;2023-01-16T06:46:23;11.75;;;5.57;;
74620;SDS011;64861;47.546;19.254;2023-01-16T06:48:49;11.52;;;5.30;;
74620;SDS011;64861;47.546;19.254;2023-01-16T06:51:14;10.60;;;5.40;;
74620;SDS011;64861;47.546;19.254;2023-01-16T06:53:39;12.70;;;5.45;;
74620;SDS011;64861;47.546;19.254;2023-01-16T06:56:05;8.95;;;5.72;;
74620;SDS011;64861;47.546;19.254;2023-01-16T06:58:31;10.65;;;4.97;;
74620;SDS011;64861;47.546;19.254;2023-01-16T07:00:56;12.07;;;5.47;;
74620;SDS011;64861;47.546;19.254;2023-01-16T07:03:21;13.68;;;5.30;;
74620;SDS011;64861;47.546;19.254;2023-01-16T07:05:47;13.10;;;5.13;;
74620;SDS011;64861;47.546;19.254;2023-01-16T07:08:13;12.32;;;4.93;;
74620;SDS011;64861;47.546;19.254;2023-01-16T07:10:39;14.75;;;5.03;;
74620;SDS011;64861;47.546;19.254;2023-01-16T07:13:04;10.60;;;4.97;;
74620;SDS011;64861;47.546;19.254;2023-01-16T07:15:30;7.63;;;5.03;;
74620;SDS011;64861;47.546;19.254;2023-01-16T07:18:15;9.85;;;4.68;;
74620;SDS011;64861;47.546;19.254;2023-01-16T07:21:04;12.32;;;5.40;;
74620;SDS011;64861;47.546;19.254;2023-01-16T07:23:50;8.63;;;4.97;;
74620;SDS011;64861;47.546;19.254;2023-01-16T07:26:20;7.95;;;4.80;;
74620;SDS011;64861;47.546;19.254;2023-01-16T07:28:47;9.40;;;4.88;;
74620;SDS011;64861;47.546;19.254;2023-01-16T07:31:14;9.65;;;4.95;;
74620;SDS011;64861;47.546;19.254;2023-01-16T07:33:41;9.65;;;5.40;;
74620;SDS011;64861;47.546;19.254;2023-01-16T07:36:06;9.77;;;4.88;;
74620;SDS011;64861;47.546;19.254;2023-01-16T07:38:32;10.63;;;5.20;;
74620;SDS011;64861;47.546;19.254;2023-01-16T07:40:57;10.45;;;5.28;;
74620;SDS011;64861;47.546;19.254;2023-01-16T07:43:22;9.52;;;5.28;;
74620;SDS011;64861;47.546;19.254;2023-01-16T07:45:48;11.75;;;4.90;;
74620;SDS011;64861;47.546;19.254;2023-01-16T07:48:26;11.82;;;5.22;;
74620;SDS011;64861;47.546;19.254;2023-01-16T07:50:52;10.93;;;4.93;;
74620;SDS011;64861;47.546;19.254;2023-01-16T07:53:19;11.05;;;4.90;;
74620;SDS011;64861;47.546;19.254;2023-01-16T07:55:48;15.45;;;4.88;;
74620;SDS011;64861;47.546;19.254;2023-01-16T07:58:14;12.00;;;4.80;;
74620;SDS011;64861;47.546;19.254;2023-01-16T08:00:40;17.10;;;4.82;;
74620;SDS011;64861;47.546;19.254;2023-01-16T08:03:06;11.27;;;4.45;;
74620;SDS011;64861;47.546;19.254;2023-01-16T08:05:31;14.18;;;4.88;;
74620;SDS011;64861;47.546;19.254;2023-01-16T08:07:57;16.40;;;5.13;;
74620;SDS011;64861;47.546;19.254;2023-01-16T08:10:22;15.50;;;5.07;;
74620;SDS011;64861;47.546;19.254;2023-01-16T08:12:47;13.02;;;4.75;;
74620;SDS011;64861;47.546;19.254;2023-01-16T08:15:13;13.38;;;4.75;;
74620;SDS011;64861;47.546;19.254;2023-01-16T08:17:39;8.98;;;4.88;;
74620;SDS011;64861;47.546;19.254;2023-01-16T08:20:08;10.48;;;4.65;;
74620;SDS011;64861;47.546;19.254;2023-01-16T08:22:34;10.82;;;4.70;;
74620;SDS011;64861;47.546;19.254;2023-01-16T08:25:00;9.65;;;4.68;;
74620;SDS011;64861;47.546;19.254;2023-01-16T08:27:26;11.93;;;4.70;;
74620;SDS011;64861;47.546;19.254;2023-01-16T08:29:51;8.05;;;4.55;;
74620;SDS011;64861;47.546;19.254;2023-01-16T08:32:16;11.75;;;4.50;;
74620;SDS011;64861;47.546;19.254;2023-01-16T08:34:42;10.85;;;4.68;;
74620;SDS011;64861;47.546;19.254;2023-01-16T08:37:08;8.02;;;4.53;;
74620;SDS011;64861;47.546;19.254;2023-01-16T08:39:38;8.65;;;4.20;;
74620;SDS011;64861;47.546;19.254;2023-01-16T08:42:03;13.63;;;4.80;;
74620;SDS011;64861;47.546;19.254;2023-01-16T08:44:47;11.32;;;4.70;;
74620;SDS011;64861;47.546;19.254;2023-01-16T08:47:32;12.90;;;4.68;;
74620;SDS011;64861;47.546;19.254;2023-01-16T08:50:19;9.85;;;4.75;;
74620;SDS011;64861;47.546;19.254;2023-01-16T08:53:04;8.20;;;4.65;;
74620;SDS011;64861;47.546;19.254;2023-01-16T08:55:30;8.30;;;4.45;;
74620;SDS011;64861;47.546;19.254;2023-01-16T08:57:55;7.68;;;4.72;;
74620;SDS011;64861;47.546;19.254;2023-01-16T09:00:23;9.93;;;5.82;;
74620;SDS011;64861;47.546;19.254;2023-01-16T09:02:52;8.65;;;4.93;;
74620;SDS011;64861;47.546;19.254;2023-01-16T09:05:20;12.98;;;4.82;;
74620;SDS011;64861;47.546;19.254;2023-01-16T09:07:45;9.50;;;4.68;;
74620;SDS011;64861;47.546;19.254;2023-01-16T09:10:11;10.23;;;4.63;;
74620;SDS011;64861;47.546;19.254;2023-01-16T09:12:38;10.15;;;4.55;;
74620;SDS011;64861;47.546;19.254;2023-01-16T09:15:22;9.50;;;5.13;;
74620;SDS011;64861;47.546;19.254;2023-01-16T09:17:48;11.38;;;5.03;;
74620;SDS011;64861;47.546;19.254;2023-01-16T09:20:14;20.92;;;6.25;;
74620;SDS011;64861;47.546;19.254;2023-01-16T09:22:39;16.60;;;5.63;;
74620;SDS011;64861;47.546;19.254;2023-01-16T09:25:05;20.63;;;5.85;;
74620;SDS011;64861;47.546;19.254;2023-01-16T09:27:31;27.38;;;8.15;;
74620;SDS011;64861;47.546;19.254;2023-01-16T09:29:57;24.90;;;6.82;;
74620;SDS011;64861;47.546;19.254;2023-01-16T09:32:24;22.13;;;6.93;;
74620;SDS011;64861;47.546;19.254;2023-01-16T09:34:49;27.17;;;7.60;;
74620;SDS011;64861;47.546;19.254;2023-01-16T09:37:15;40.65;;;9.70;;
74620;SDS011;64861;47.546;19.254;2023-01-16T09:39:40;31.25;;;9.32;;
74620;SDS011;64861;47.546;19.254;2023-01-16T09:45:22;28.02;;;8.48;;
74620;SDS011;64861;47.546;19.254;2023-01-16T09:47:53;27.05;;;8.50;;
74620;SDS011;64861;47.546;19.254;2023-01-16T09:50:36;30.65;;;7.50;;
74620;SDS011;64861;47.546;19.254;2023-01-16T09:56:15;21.70;;;7.25;;
74620;SDS011;64861;47.546;19.254;2023-01-16T09:59:12;22.05;;;7.68;;
74620;SDS011;64861;47.546;19.254;2023-01-16T10:01:51;19.90;;;7.25;;
74620;SDS011;64861;47.546;19.254;2023-01-16T10:04:21;21.00;;;7.77;;
74620;SDS011;64861;47.546;19.254;2023-01-16T10:09:36;23.52;;;7.78;;
74620;SDS011;64861;47.546;19.254;2023-01-16T10:12:18;30.85;;;8.18;;
74620;SDS011;64861;47.546;19.254;2023-01-16T10:23:08;19.48;;;6.97;;
74620;SDS011;64861;47.546;19.254;2023-01-16T10:26:02;22.95;;;8.65;;
74620;SDS011;64861;47.546;19.254;2023-01-16T10:34:54;22.05;;;7.57;;
74620;SDS011;64861;47.546;19.254;2023-01-16T10:37:28;20.27;;;7.30;;
74620;SDS011;64861;47.546;19.254;2023-01-16T10:39:55;23.33;;;7.43;;
74620;SDS011;64861;47.546;19.254;2023-01-16T10:42:24;18.65;;;7.43;;
74620;SDS011;64861;47.546;19.254;2023-01-16T10:45:17;23.55;;;6.65;;
74620;SDS011;64861;47.546;19.254;2023-01-16T10:48:08;21.67;;;7.35;;
74620;SDS011;64861;47.546;19.254;2023-01-16T10:50:55;17.95;;;6.80;;
74620;SDS011;64861;47.546;19.254;2023-01-16T10:53:21;15.13;;;6.43;;
74620;SDS011;64861;47.546;19.254;2023-01-16T10:55:47;15.63;;;6.63;;
74620;SDS011;64861;47.546;19.254;2023-01-16T11:01:03;17.98;;;6.00;;
74620;SDS011;64861;47.546;19.254;2023-01-16T11:03:40;15.98;;;6.75;;
74620;SDS011;64861;47.546;19.254;2023-01-16T11:06:10;17.33;;;6.75;;
74620;SDS011;64861;47.546;19.254;2023-01-16T11:08:42;14.90;;;6.20;;
74620;SDS011;64861;47.546;19.254;2023-01-16T11:11:13;15.70;;;5.88;;
74620;SDS011;64861;47.546;19.254;2023-01-16T11:14:44;18.00;;;6.70;;
74620;SDS011;64861;47.546;19.254;2023-01-16T11:20:09;28.88;;;13.15;;
74620;SDS011;64861;47.546;19.254;2023-01-16T11:22:53;23.20;;;11.27;;
74620;SDS011;64861;47.546;19.254;2023-01-16T11:25:22;22.83;;;10.05;;
74620;SDS011;64861;47.546;19.254;2023-01-16T11:27:49;19.30;;;8.13;;
74620;SDS011;64861;47.546;19.254;2023-01-16T11:30:18;20.33;;;7.65;;
74620;SDS011;64861;47.546;19.254;2023-01-16T11:32:46;15.02;;;7.35;;
74620;SDS011;64861;47.546;19.254;2023-01-16T11:35:14;16.38;;;7.15;;
74620;SDS011;64861;47.546;19.254;2023-01-16T11:37:43;16.40;;;7.45;;
74620;SDS011;64861;47.546;19.254;2023-01-16T11:40:20;13.38;;;6.95;;
74620;SDS011;64861;47.546;19.254;2023-01-16T11:43:29;13.85;;;7.22;;
74620;SDS011;64861;47.546;19.254;2023-01-16T11:46:25;13.93;;;6.93;;
74620;SDS011;64861;47.546;19.254;2023-01-16T11:49:02;16.27;;;7.38;;
74620;SDS011;64861;47.546;19.254;2023-01-16T11:51:31;16.48;;;7.28;;
74620;SDS011;64861;47.546;19.254;2023-01-16T11:54:01;15.57;;;6.82;;
74620;SDS011;64861;47.546;19.254;2023-01-16T12:07:50;14.77;;;6.68;;
74620;SDS011;64861;47.546;19.254;2023-01-16T12:10:21;12.07;;;6.70;;
74620;SDS011;64861;47.546;19.254;2023-01-16T12:12:59;13.40;;;6.50;;
74620;SDS011;64861;47.546;19.254;2023-01-16T12:18:41;10.90;;;6.68;;
74620;SDS011;64861;47.546;19.254;2023-01-16T12:24:09;11.73;;;6.88;;
74620;SDS011;64861;47.546;19.254;2023-01-16T12:30:00;13.02;;;6.90;;
74620;SDS011;64861;47.546;19.254;2023-01-16T12:33:17;15.02;;;6.28;;
74620;SDS011;64861;47.546;19.254;2023-01-16T12:44:31;10.15;;;5.80;;
74620;SDS011;64861;47.546;19.254;2023-01-16T12:47:35;12.82;;;6.28;;
74620;SDS011;64861;47.546;19.254;2023-01-16T12:50:27;10.68;;;5.97;;
74620;SDS011;64861;47.546;19.254;2023-01-16T13:06:05;11.45;;;6.28;;
74620;SDS011;64861;47.546;19.254;2023-01-16T13:08:43;10.10;;;5.57;;
74620;SDS011;64861;47.546;19.254;2023-01-16T13:11:17;12.23;;;5.88;;
74620;SDS011;64861;47.546;19.254;2023-01-16T13:14:08;9.52;;;5.47;;
74620;SDS011;64861;47.546;19.254;2023-01-16T13:16:37;10.85;;;6.00;;
74620;SDS011;64861;47.546;19.254;2023-01-16T13:21:52;10.82;;;6.28;;
74620;SDS011;64861;47.546;19.254;2023-01-16T13:24:26;13.80;;;5.90;;
74620;SDS011;64861;47.546;19.254;2023-01-16T13:26:58;11.77;;;6.57;;
74620;SDS011;64861;47.546;19.254;2023-01-16T13:29:35;11.20;;;6.10;;
74620;SDS011;64861;47.546;19.254;2023-01-16T13:32:12;11.85;;;6.10;;
74620;SDS011;64861;47.546;19.254;2023-01-16T13:34:54;13.20;;;5.97;;
74620;SDS011;64861;47.546;19.254;2023-01-16T13:41:14;10.10;;;5.70;;
74620;SDS011;64861;47.546;19.254;2023-01-16T13:43:36;14.82;;;6.18;;
74620;SDS011;64861;47.546;19.254;2023-01-16T13:46:25;11.65;;;6.22;;
74620;SDS011;64861;47.546;19.254;2023-01-16T13:48:52;14.45;;;5.68;;
74620;SDS011;64861;47.546;19.254;2023-01-16T13:51:21;11.85;;;5.70;;
74620;SDS011;64861;47.546;19.254;2023-01-16T13:53:59;10.95;;;6.03;;
74620;SDS011;64861;47.546;19.254;2023-01-16T13:56:28;10.20;;;5.90;;
74620;SDS011;64861;47.546;19.254;2023-01-16T13:58:57;10.13;;;5.50;;
74620;SDS011;64861;47.546;19.254;2023-01-16T14:01:32;9.73;;;5.88;;
74620;SDS011;64861;47.546;19.254;2023-01-16T14:06:49;11.35;;;5.60;;
74620;SDS011;64861;47.546;19.254;2023-01-16T14:09:35;11.43;;;5.65;;
74620;SDS011;64861;47.546;19.254;2023-01-16T14:12:31;12.18;;;5.68;;
74620;SDS011;64861;47.546;19.254;2023-01-16T14:23:11;11.77;;;6.15;;
74620;SDS011;64861;47.546;19.254;2023-01-16T14:26:03;10.02;;;5.57;;
74620;SDS011;64861;47.546;19.254;2023-01-16T14:28:31;11.05;;;5.40;;
74620;SDS011;64861;47.546;19.254;2023-01-16T14:30:58;10.75;;;5.80;;
74620;SDS011;64861;47.546;19.254;2023-01-16T14:33:24;11.75;;;5.60;;
74620;SDS011;64861;47.546;19.254;2023-01-16T14:35:53;9.30;;;5.13;;
74620;SDS011;64861;47.546;19.254;2023-01-16T14:38:22;10.80;;;5.28;;
74620;SDS011;64861;47.546;19.254;2023-01-16T14:44:23;10.63;;;5.78;;
74620;SDS011;64861;47.546;19.254;2023-01-16T14:47:09;14.60;;;5.75;;
74620;SDS011;64861;47.546;19.254;2023-01-16T14:50:10;12.77;;;5.13;;
74620;SDS011;64861;47.546;19.254;2023-01-16T14:58:37;9.57;;;5.20;;
74620;SDS011;64861;47.546;19.254;2023-01-16T15:01:14;9.95;;;5.53;;
74620;SDS011;64861;47.546;19.254;2023-01-16T15:04:05;11.20;;;5.40;;
74620;SDS011;64861;47.546;19.254;2023-01-16T15:06:36;8.45;;;4.85;;
74620;SDS011;64861;47.546;19.254;2023-01-16T15:09:04;9.93;;;5.10;;
74620;SDS011;64861;47.546;19.254;2023-01-16T15:11:44;10.55;;;5.53;;
74620;SDS011;64861;47.546;19.254;2023-01-16T15:14:17;8.95;;;5.18;;
74620;SDS011;64861;47.546;19.254;2023-01-16T15:16:50;10.80;;;5.60;;
74620;SDS011;64861;47.546;19.254;2023-01-16T15:19:39;9.48;;;5.38;;
74620;SDS011;64861;47.546;19.254;2023-01-16T15:22:41;15.60;;;5.70;;
74620;SDS011;64861;47.546;19.254;2023-01-16T15:30:39;10.70;;;5.40;;
74620;SDS011;64861;47.546;19.254;2023-01-16T15:33:20;12.73;;;5.60;;
74620;SDS011;64861;47.546;19.254;2023-01-16T15:36:16;10.50;;;5.68;;
74620;SDS011;64861;47.546;19.254;2023-01-16T15:39:14;11.40;;;5.55;;
74620;SDS011;64861;47.546;19.254;2023-01-16T15:42:02;9.32;;;5.82;;
74620;SDS011;64861;47.546;19.254;2023-01-16T15:45:00;9.73;;;4.85;;
74620;SDS011;64861;47.546;19.254;2023-01-16T15:48:10;15.63;;;5.30;;
74620;SDS011;64861;47.546;19.254;2023-01-16T15:51:07;11.88;;;5.35;;
74620;SDS011;64861;47.546;19.254;2023-01-16T15:53:36;8.43;;;5.22;;
74620;SDS011;64861;47.546;19.254;2023-01-16T15:56:09;8.95;;;5.20;;
74620;SDS011;64861;47.546;19.254;2023-01-16T15:58:45;11.25;;;5.20;;
74620;SDS011;64861;47.546;19.254;2023-01-16T16:01:14;12.18;;;4.68;;
74620;SDS011;64861;47.546;19.254;2023-01-16T16:03:46;10.13;;;5.32;;
74620;SDS011;64861;47.546;19.254;2023-01-16T16:06:14;9.30;;;4.60;;
74620;SDS011;64861;47.546;19.254;2023-01-16T16:08:52;8.82;;;5.00;;
74620;SDS011;64861;47.546;19.254;2023-01-16T16:11:20;8.90;;;5.20;;
74620;SDS011;64861;47.546;19.254;2023-01-16T16:14:06;10.10;;;5.15;;
74620;SDS011;64861;47.546;19.254;2023-01-16T16:17:03;11.15;;;5.15;;
74620;SDS011;64861;47.546;19.254;2023-01-16T16:20:22;11.15;;;5.30;;
74620;SDS011;64861;47.546;19.254;2023-01-16T16:23:18;8.43;;;4.88;;
74620;SDS011;64861;47.546;19.254;2023-01-16T16:25:47;11.57;;;5.50;;
74620;SDS011;64861;47.546;19.254;2023-01-16T16:30:44;9.57;;;5.10;;
74620;SDS011;64861;47.546;19.254;2023-01-16T16:33:17;12.65;;;5.45;;
74620;SDS011;64861;47.546;19.254;2023-01-16T16:35:47;9.52;;;5.28;;
74620;SDS011;64861;47.546;19.254;2023-01-16T16:38:18;11.25;;;5.03;;
74620;SDS011;64861;47.546;19.254;2023-01-16T16:43:48;7.95;;;5.00;;
74620;SDS011;64861;47.546;19.254;2023-01-16T16:48:48;10.82;;;5.47;;
74620;SDS011;64861;47.546;19.254;2023-01-16T16:51:19;7.75;;;4.75;;
74620;SDS011;64861;47.546;19.254;2023-01-16T16:54:08;9.32;;;5.57;;
74620;SDS011;64861;47.546;19.254;2023-01-16T16:56:38;10.98;;;5.00;;
74620;SDS011;64861;47.546;19.254;2023-01-16T16:59:30;10.13;;;5.53;;
74620;SDS011;64861;47.546;19.254;2023-01-16T17:01:58;12.75;;;4.80;;
74620;SDS011;64861;47.546;19.254;2023-01-16T17:04:31;10.27;;;5.47;;
74620;SDS011;64861;47.546;19.254;2023-01-16T17:06:57;8.75;;;5.07;;
74620;SDS011;64861;47.546;19.254;2023-01-16T17:09:24;10.15;;;5.78;;
74620;SDS011;64861;47.546;19.254;2023-01-16T17:11:51;8.55;;;5.00;;
74620;SDS011;64861;47.546;19.254;2023-01-16T17:14:17;11.18;;;5.55;;
74620;SDS011;64861;47.546;19.254;2023-01-16T17:16:42;12.68;;;5.50;;
74620;SDS011;64861;47.546;19.254;2023-01-16T17:19:19;9.75;;;5.35;;
74620;SDS011;64861;47.546;19.254;2023-01-16T17:21:47;8.68;;;5.45;;
74620;SDS011;64861;47.546;19.254;2023-01-16T17:24:17;8.32;;;5.20;;
74620;SDS011;64861;47.546;19.254;2023-01-16T17:26:43;7.47;;;4.70;;
74620;SDS011;64861;47.546;19.254;2023-01-16T17:29:09;8.30;;;4.95;;